Terminal Aerodrome Forecast
Issued by NWS

Home | Current Version | Previous Version | Graphics & Text | Print | Product List | Glossary On
Versions: 1 2 3 4 5 6 7 8 9 10 11 12 13 14 15 16
873
FTUS43 KIWX 192340
TAFSBN
TAF
KSBN 192340Z 2000/2024 30007KT P6SM SCT250
     FM200300 20004KT P6SM FEW050 BKN150
      TEMPO 2005/2008 5SM SHRA BR BKN040
     FM201300 21008KT P6SM VCSH BKN050
     FM201800 26011KT P6SM SCT050 BKN250=

USA.gov is the U.S. government's official web portal to all federal, state and local government web resources and services.